createdAt,value
2022-09-24T00:01:34.842Z,6.68
2022-09-24T00:04:07.709Z,6.55
2022-09-24T00:06:41.150Z,6.28
2022-09-24T00:09:08.261Z,6.57
2022-09-24T00:11:35.581Z,6.00
2022-09-24T00:14:07.076Z,6.10
2022-09-24T00:16:34.702Z,6.20
2022-09-24T00:19:02.915Z,6.40
2022-09-24T00:21:38.999Z,6.80
2022-09-24T00:24:37.090Z,6.53
2022-09-24T00:27:06.685Z,6.30
2022-09-24T00:29:36.207Z,6.53
2022-09-24T00:32:08.598Z,7.03
2022-09-24T00:34:35.479Z,6.30
2022-09-24T00:37:02.381Z,5.75
2022-09-24T00:39:29.298Z,6.35
2022-09-24T00:41:58.266Z,6.40
2022-09-24T00:44:48.601Z,6.20
2022-09-24T00:47:27.431Z,6.00
2022-09-24T00:50:02.749Z,6.05
2022-09-24T00:52:29.419Z,6.43
2022-09-24T00:54:56.211Z,6.05
2022-09-24T00:57:24.017Z,5.97
2022-09-24T00:59:54.952Z,5.88
2022-09-24T01:02:24.822Z,6.82
2022-09-24T01:04:56.222Z,6.20
2022-09-24T01:07:25.546Z,5.65
2022-09-24T01:09:52.505Z,6.30
2022-09-24T01:12:41.945Z,6.15
2022-09-24T01:17:50.108Z,6.38
2022-09-24T01:20:40.110Z,6.78
2022-09-24T01:23:27.040Z,5.78
2022-09-24T01:26:19.137Z,5.78
2022-09-24T01:29:06.121Z,6.63
2022-09-24T01:31:44.315Z,6.32
2022-09-24T01:34:14.943Z,5.50
2022-09-24T01:36:45.100Z,6.43
2022-09-24T01:39:17.053Z,7.50
2022-09-24T01:41:47.180Z,6.88
2022-09-24T01:44:18.579Z,6.25
2022-09-24T01:46:45.553Z,6.20
2022-09-24T01:49:12.351Z,5.97
2022-09-24T01:51:45.750Z,6.47
2022-09-24T01:54:25.652Z,7.65
2022-09-24T01:57:00.653Z,6.65
2022-09-24T01:59:38.998Z,5.78
2022-09-24T02:02:22.977Z,6.55
2022-09-24T02:04:55.990Z,5.25
2022-09-24T02:07:30.552Z,5.25
2022-09-24T02:09:57.322Z,5.63
2022-09-24T02:12:29.786Z,6.13
2022-09-24T02:15:09.125Z,5.43
2022-09-24T02:17:38.380Z,5.30
2022-09-24T02:20:13.410Z,5.13
2022-09-24T02:22:44.524Z,5.28
2022-09-24T02:25:16.634Z,5.93
2022-09-24T02:27:45.625Z,5.32
2022-09-24T02:30:12.989Z,5.53
2022-09-24T02:32:41.171Z,5.70
2022-09-24T02:35:10.187Z,4.85
2022-09-24T02:38:13.662Z,5.10
2022-09-24T02:40:41.072Z,4.57
2022-09-24T02:43:07.923Z,5.00
2022-09-24T02:45:36.612Z,3.42
2022-09-24T02:48:05.411Z,4.32
2022-09-24T02:50:32.464Z,3.47
2022-09-24T02:52:59.187Z,4.90
2022-09-24T02:55:25.920Z,4.65
2022-09-24T02:57:54.913Z,4.20
2022-09-24T03:00:21.904Z,4.38
2022-09-24T03:02:48.614Z,4.05
2022-09-24T03:05:18.293Z,3.70
2022-09-24T03:07:48.019Z,5.15
2022-09-24T03:10:14.828Z,3.75
2022-09-24T03:12:46.245Z,4.35
2022-09-24T03:15:17.571Z,4.30
2022-09-24T03:17:44.237Z,4.15
2022-09-24T03:20:10.924Z,4.03
2022-09-24T03:22:37.619Z,3.47
2022-09-24T03:25:04.527Z,4.20
2022-09-24T03:27:33.457Z,3.70
2022-09-24T03:30:23.840Z,4.00
2022-09-24T03:32:50.507Z,3.97
2022-09-24T03:35:17.233Z,4.65
2022-09-24T03:37:49.154Z,3.55
2022-09-24T03:40:16.274Z,3.80
2022-09-24T03:42:45.448Z,3.40
2022-09-24T03:45:12.381Z,3.47
2022-09-24T03:47:41.929Z,3.65
2022-09-24T03:50:11.969Z,4.35
2022-09-24T03:52:41.475Z,3.72
2022-09-24T03:57:37.172Z,3.83
2022-09-24T04:00:06.816Z,3.83
2022-09-24T04:02:34.628Z,4.30
2022-09-24T04:05:01.771Z,3.55
2022-09-24T04:07:30.654Z,4.50
2022-09-24T04:10:00.010Z,4.10
2022-09-24T04:12:26.721Z,3.92
2022-09-24T04:14:53.416Z,3.50
2022-09-24T04:17:20.176Z,4.18
2022-09-24T04:19:51.620Z,4.00
2022-09-24T04:22:21.476Z,3.55
2022-09-24T04:24:51.447Z,4.30
2022-09-24T04:27:21.512Z,3.53
2022-09-24T04:29:54.207Z,4.25
2022-09-24T04:32:23.921Z,4.35
2022-09-24T04:34:53.105Z,3.75
2022-09-24T04:37:22.048Z,3.88
2022-09-24T04:39:52.846Z,4.00
2022-09-24T04:42:19.587Z,4.47
2022-09-24T04:44:51.730Z,4.40
2022-09-24T04:47:20.841Z,3.78
2022-09-24T04:49:47.913Z,3.60
2022-09-24T04:52:16.717Z,4.05
2022-09-24T04:54:47.398Z,4.22
2022-09-24T04:57:15.125Z,4.00
2022-09-24T04:59:44.692Z,4.28
2022-09-24T05:02:18.776Z,4.35
2022-09-24T05:04:45.715Z,4.40
2022-09-24T05:07:12.459Z,4.47
2022-09-24T05:09:41.427Z,5.10
2022-09-24T05:12:08.864Z,3.80
2022-09-24T05:14:39.006Z,4.72
2022-09-24T05:17:05.711Z,5.00
2022-09-24T05:19:32.735Z,5.00
2022-09-24T05:24:28.477Z,4.88
2022-09-24T05:27:11.681Z,5.07
2022-09-24T05:29:43.478Z,5.28
2022-09-24T05:32:15.223Z,5.35
2022-09-24T05:34:45.436Z,5.05
2022-09-24T05:37:15.109Z,4.82
2022-09-24T05:39:44.313Z,4.43
2022-09-24T05:42:14.379Z,4.85
2022-09-24T05:44:46.408Z,4.70
2022-09-24T05:47:18.072Z,4.85
2022-09-24T05:52:11.603Z,4.65
2022-09-24T05:54:38.537Z,5.43
2022-09-24T05:57:07.307Z,4.38
2022-09-24T05:59:33.980Z,4.90
2022-09-24T06:02:00.747Z,4.93
2022-09-24T06:04:27.788Z,4.80
2022-09-24T06:06:54.535Z,4.85
2022-09-24T06:09:23.754Z,4.68
2022-09-24T06:11:56.661Z,4.82
2022-09-24T06:14:23.745Z,5.00
2022-09-24T06:16:53.228Z,5.10
2022-09-24T06:21:46.512Z,5.97
2022-09-24T06:24:18.157Z,5.43
2022-09-24T06:26:44.857Z,5.55
2022-09-24T06:29:15.080Z,5.53
2022-09-24T06:31:47.009Z,5.93
2022-09-24T06:34:13.959Z,6.10
2022-09-24T06:36:40.871Z,5.35
2022-09-24T06:39:07.952Z,6.97
2022-09-24T06:41:37.191Z,7.80
2022-09-24T06:44:03.886Z,6.60
2022-09-24T06:46:31.031Z,7.45
2022-09-24T06:48:59.854Z,9.35
2022-09-24T06:51:31.729Z,9.90
2022-09-24T06:54:06.098Z,9.07
2022-09-24T06:56:34.948Z,9.23
2022-09-24T06:59:03.603Z,8.88
2022-09-24T07:01:39.514Z,11.60
2022-09-24T07:04:08.484Z,11.40
2022-09-24T07:06:56.169Z,7.60
2022-09-24T07:09:22.899Z,9.07
2022-09-24T07:11:53.087Z,9.82
2022-09-24T07:14:19.862Z,9.38
2022-09-24T07:16:47.433Z,8.48
2022-09-24T07:19:14.099Z,8.90
2022-09-24T07:21:41.057Z,9.65
2022-09-24T07:24:10.150Z,10.05
2022-09-24T07:26:41.619Z,8.88
2022-09-24T07:29:10.526Z,12.65
2022-09-24T07:31:39.707Z,10.02
2022-09-24T07:34:09.644Z,10.75
2022-09-24T07:36:41.378Z,9.63
2022-09-24T07:39:11.041Z,10.18
2022-09-24T07:41:42.163Z,11.02
2022-09-24T07:44:09.763Z,9.45
2022-09-24T07:46:43.838Z,10.30
2022-09-24T07:49:13.344Z,9.75
2022-09-24T07:51:40.127Z,11.02
2022-09-24T07:54:12.751Z,10.40
2022-09-24T07:56:43.253Z,9.35
2022-09-24T08:01:41.475Z,9.48
2022-09-24T08:04:13.140Z,9.95
2022-09-24T08:06:45.030Z,10.50
2022-09-24T08:09:15.880Z,11.40
2022-09-24T08:11:42.686Z,11.10
2022-09-24T08:14:11.791Z,11.85
2022-09-24T08:16:40.749Z,11.07
2022-09-24T08:19:13.719Z,11.40
2022-09-24T08:21:40.548Z,12.90
2022-09-24T08:24:09.495Z,11.40
2022-09-24T08:26:36.261Z,11.52
2022-09-24T08:29:02.977Z,12.32
2022-09-24T08:31:31.426Z,13.32
2022-09-24T08:33:58.185Z,11.33
2022-09-24T08:36:28.011Z,11.00
2022-09-24T08:38:55.652Z,11.30
2022-09-24T08:41:43.796Z,11.23
2022-09-24T08:44:56.125Z,11.38
2022-09-24T08:47:47.707Z,11.77
2022-09-24T08:50:18.546Z,11.13
2022-09-24T08:53:12.277Z,12.77
2022-09-24T08:55:50.631Z,11.07
2022-09-24T08:58:17.268Z,10.90
2022-09-24T09:03:47.625Z,8.93
2022-09-24T09:06:51.527Z,10.05
2022-09-24T09:09:23.661Z,10.52
2022-09-24T09:11:52.761Z,7.90
2022-09-24T09:14:22.651Z,8.77
2022-09-24T09:17:01.121Z,9.02
2022-09-24T09:19:35.621Z,7.93
2022-09-24T09:22:10.437Z,8.25
2022-09-24T09:24:52.864Z,7.35
2022-09-24T09:27:22.123Z,6.55
2022-09-24T09:30:04.341Z,6.60
2022-09-24T09:32:49.649Z,6.15
2022-09-24T09:35:45.200Z,6.70
2022-09-24T09:38:56.539Z,6.28
2022-09-24T09:41:47.068Z,4.88
2022-09-24T09:44:24.072Z,4.63
2022-09-24T09:46:59.620Z,3.90
2022-09-24T09:49:33.082Z,4.13
2022-09-24T09:52:02.868Z,5.20
2022-09-24T09:54:39.153Z,3.75
2022-09-24T09:57:10.257Z,3.80
2022-09-24T09:59:40.640Z,3.35
2022-09-24T10:02:15.293Z,3.08
2022-09-24T10:04:43.087Z,2.53
2022-09-24T10:07:16.424Z,2.88
2022-09-24T10:09:46.736Z,2.80
2022-09-24T10:12:24.641Z,2.10
2022-09-24T10:15:01.895Z,1.58
2022-09-24T10:17:39.705Z,1.80
2022-09-24T10:20:30.600Z,1.80
2022-09-24T10:22:59.106Z,1.02
2022-09-24T10:25:46.756Z,1.13
2022-09-24T10:28:41.358Z,1.02
2022-09-24T10:31:17.037Z,1.00
2022-09-24T10:33:50.595Z,1.67
2022-09-24T10:36:27.101Z,0.85
2022-09-24T10:39:02.255Z,1.05
2022-09-24T10:41:33.927Z,1.27
2022-09-24T10:44:13.821Z,1.02
2022-09-24T10:47:01.391Z,1.45
2022-09-24T10:49:47.090Z,1.42
2022-09-24T10:52:41.038Z,1.00
2022-09-24T10:55:28.958Z,0.82
2022-09-24T10:58:11.454Z,0.82
2022-09-24T11:01:10.843Z,0.77
2022-09-24T11:04:05.526Z,0.70
2022-09-24T11:06:44.787Z,0.60
2022-09-24T11:09:34.161Z,0.75
2022-09-24T11:12:07.682Z,3.22
2022-09-24T11:15:01.088Z,0.70
2022-09-24T11:18:09.175Z,0.50
2022-09-24T11:20:43.091Z,1.05
2022-09-24T11:23:31.786Z,0.55
2022-09-24T11:26:23.571Z,0.80
2022-09-24T11:29:11.685Z,0.68
2022-09-24T11:31:48.417Z,1.03
2022-09-24T11:34:21.443Z,0.80
2022-09-24T11:37:26.605Z,1.05
2022-09-24T11:40:11.250Z,0.80
2022-09-24T11:43:24.746Z,0.70
2022-09-24T11:46:16.201Z,0.60
2022-09-24T11:48:45.962Z,0.70
2022-09-24T11:51:24.825Z,1.02
2022-09-24T11:54:08.527Z,0.68
2022-09-24T11:56:41.379Z,0.80
2022-09-24T11:59:23.076Z,0.60
2022-09-24T12:01:58.893Z,0.70
2022-09-24T12:04:31.003Z,0.80
2022-09-24T12:07:13.282Z,0.70
2022-09-24T12:09:45.463Z,0.77
2022-09-24T12:12:25.096Z,0.90
2022-09-24T12:15:01.621Z,0.90
2022-09-24T12:17:38.970Z,0.73
2022-09-24T12:20:20.377Z,0.50
2022-09-24T12:22:55.973Z,0.70
2022-09-24T12:25:22.978Z,0.85
2022-09-24T12:27:49.962Z,0.73
2022-09-24T12:31:07.415Z,0.60
2022-09-24T12:33:49.155Z,0.80
2022-09-24T12:36:23.518Z,0.75
2022-09-24T12:38:54.461Z,0.68
2022-09-24T12:41:38.586Z,0.80
2022-09-24T12:44:11.437Z,0.90
2022-09-24T12:46:45.857Z,0.50
2022-09-24T12:49:30.314Z,0.80
2022-09-24T12:52:01.125Z,0.90
2022-09-24T12:54:34.486Z,0.98
2022-09-24T12:57:25.954Z,1.00
2022-09-24T13:00:00.277Z,0.73
2022-09-24T13:02:47.616Z,1.00
2022-09-24T13:05:23.576Z,0.60
2022-09-24T13:08:02.537Z,0.70
2022-09-24T13:10:29.213Z,0.70
2022-09-24T13:12:58.161Z,0.90
2022-09-24T13:15:35.417Z,0.80
2022-09-24T13:18:11.322Z,0.70
2022-09-24T13:20:46.171Z,1.52
2022-09-24T13:23:19.614Z,0.70
2022-09-24T13:25:56.953Z,0.63
2022-09-24T13:28:38.431Z,0.80
2022-09-24T13:31:11.595Z,0.68
2022-09-24T13:33:44.261Z,0.70
2022-09-24T13:36:20.269Z,0.73
2022-09-24T13:39:12.769Z,0.75
2022-09-24T13:41:50.975Z,0.85
2022-09-24T13:44:25.902Z,0.80
2022-09-24T13:47:06.566Z,0.80
2022-09-24T13:49:37.467Z,0.70
2022-09-24T13:52:13.913Z,0.82
2022-09-24T13:54:49.473Z,0.75
2022-09-24T13:57:23.334Z,0.90
2022-09-24T13:59:50.260Z,0.63
2022-09-24T14:02:25.921Z,1.10
2022-09-24T14:04:59.390Z,1.15
2022-09-24T14:07:29.441Z,0.60
2022-09-24T14:10:05.948Z,1.25
2022-09-24T14:12:32.805Z,0.73
2022-09-24T14:15:04.509Z,0.95
2022-09-24T14:17:38.551Z,0.70
2022-09-24T14:20:05.811Z,0.90
2022-09-24T14:22:42.452Z,1.35
2022-09-24T14:25:20.114Z,1.02
2022-09-24T14:27:51.045Z,0.80
2022-09-24T14:30:25.790Z,0.90
2022-09-24T14:33:01.705Z,0.70
2022-09-24T14:35:35.722Z,1.05
2022-09-24T14:38:04.345Z,0.75
2022-09-24T14:40:51.343Z,0.60
2022-09-24T14:43:28.859Z,0.85
2022-09-24T14:46:30.197Z,0.73
2022-09-24T14:49:18.247Z,0.77
2022-09-24T14:51:58.911Z,0.50
2022-09-24T14:54:42.153Z,0.70
2022-09-24T14:57:18.635Z,1.45
2022-09-24T14:59:46.458Z,0.80
2022-09-24T15:02:24.861Z,1.00
2022-09-24T15:04:54.342Z,0.85
2022-09-24T15:07:30.797Z,1.25
2022-09-24T15:09:59.689Z,1.50
2022-09-24T15:12:31.001Z,1.25
2022-09-24T15:15:05.590Z,0.82
2022-09-24T15:17:36.292Z,0.98
2022-09-24T15:20:12.502Z,1.00
2022-09-24T15:22:42.524Z,0.65
2022-09-24T15:25:10.204Z,0.80
2022-09-24T15:27:40.028Z,1.15
2022-09-24T15:30:21.544Z,1.10
2022-09-24T15:32:54.049Z,1.02
2022-09-24T15:35:24.071Z,1.20
2022-09-24T15:37:53.062Z,1.20
2022-09-24T15:40:22.903Z,1.33
2022-09-24T15:42:52.631Z,1.77
2022-09-24T15:45:23.758Z,1.20
2022-09-24T15:47:57.276Z,1.08
2022-09-24T15:50:24.349Z,1.02
2022-09-24T15:52:57.351Z,1.25
2022-09-24T15:55:24.291Z,1.60
2022-09-24T15:57:51.273Z,1.10
2022-09-24T16:00:26.760Z,1.33
2022-09-24T16:02:57.493Z,1.20
2022-09-24T16:05:27.406Z,1.63
2022-09-24T16:07:54.130Z,1.42
2022-09-24T16:10:23.799Z,0.93
2022-09-24T16:12:50.591Z,1.00
2022-09-24T16:15:19.630Z,1.13
2022-09-24T16:17:50.078Z,1.33
2022-09-24T16:20:16.949Z,1.40
2022-09-24T16:22:45.848Z,1.13
2022-09-24T16:25:12.900Z,1.65
2022-09-24T16:27:41.763Z,1.73
2022-09-24T16:30:09.040Z,1.52
2022-09-24T16:32:38.073Z,1.80
2022-09-24T16:35:05.043Z,1.48
2022-09-24T16:37:34.215Z,1.73
2022-09-24T16:42:27.850Z,1.50
2022-09-24T16:44:56.808Z,1.60
2022-09-24T16:47:28.313Z,1.73
2022-09-24T16:49:54.960Z,2.35
2022-09-24T16:52:24.620Z,2.13
2022-09-24T16:54:51.310Z,2.00
2022-09-24T16:57:18.007Z,2.03
2022-09-24T16:59:47.073Z,2.25
2022-09-24T17:02:14.576Z,2.03
2022-09-24T17:04:43.508Z,1.98
2022-09-24T17:07:12.143Z,1.95
2022-09-24T17:09:57.984Z,1.80
2022-09-24T17:12:24.914Z,1.63
2022-09-24T17:14:54.035Z,1.70
2022-09-24T17:17:20.787Z,1.73
2022-09-24T17:19:47.475Z,2.28
2022-09-24T17:22:16.628Z,2.00
2022-09-24T17:27:11.945Z,2.15
2022-09-24T17:29:43.206Z,2.10
2022-09-24T17:32:10.037Z,2.60
2022-09-24T17:34:36.745Z,2.35
2022-09-24T17:37:03.449Z,2.45
2022-09-24T17:39:34.861Z,1.90
2022-09-24T17:42:02.528Z,2.13
2022-09-24T17:44:31.483Z,2.00
2022-09-24T17:46:58.246Z,2.60
2022-09-24T17:49:24.988Z,2.20
2022-09-24T17:51:51.698Z,2.40
2022-09-24T17:54:23.370Z,2.35
2022-09-24T17:56:50.055Z,2.67
2022-09-24T17:59:16.716Z,2.40
2022-09-24T18:01:46.713Z,2.25
2022-09-24T18:04:18.562Z,2.80
2022-09-24T18:06:46.474Z,2.20
2022-09-24T18:09:14.513Z,2.95
2022-09-24T18:11:49.648Z,3.15
2022-09-24T18:14:22.672Z,3.05
2022-09-24T18:16:50.090Z,2.50
2022-09-24T18:19:23.050Z,3.00
2022-09-24T18:21:59.257Z,2.90
2022-09-24T18:24:28.645Z,3.05
2022-09-24T18:26:56.148Z,2.65
2022-09-24T18:29:26.270Z,2.90
2022-09-24T18:31:55.260Z,4.05
2022-09-24T18:34:24.300Z,3.05
2022-09-24T18:36:50.952Z,3.03
2022-09-24T18:39:23.924Z,2.95
2022-09-24T18:41:51.924Z,3.17
2022-09-24T18:44:19.714Z,3.38
2022-09-24T18:46:49.838Z,3.00
2022-09-24T18:49:21.448Z,3.25
2022-09-24T18:51:49.263Z,4.05
2022-09-24T18:54:18.149Z,3.25
2022-09-24T18:56:48.213Z,2.95
2022-09-24T18:59:21.185Z,3.63
2022-09-24T19:01:48.889Z,3.45
2022-09-24T19:04:18.398Z,3.40
2022-09-24T19:06:49.781Z,3.42
2022-09-24T19:09:20.489Z,3.85
2022-09-24T19:11:50.925Z,4.03
2022-09-24T19:14:22.557Z,3.55
2022-09-24T19:16:49.231Z,3.30
2022-09-24T19:19:16.327Z,3.08
2022-09-24T19:21:47.771Z,3.38
2022-09-24T19:24:14.475Z,3.03
2022-09-24T19:26:43.914Z,3.53
2022-09-24T19:29:13.169Z,3.80
2022-09-24T19:34:11.449Z,3.88
2022-09-24T19:36:44.857Z,3.92
2022-09-24T19:39:16.973Z,4.28
2022-09-24T19:41:44.024Z,3.45
2022-09-24T19:44:13.789Z,4.22
2022-09-24T19:46:41.094Z,4.57
2022-09-24T19:49:08.184Z,3.22
2022-09-24T19:51:37.478Z,2.90
2022-09-24T19:54:06.903Z,4.32
2022-09-24T19:56:34.053Z,3.72
2022-09-24T19:59:03.974Z,4.60
2022-09-24T20:01:36.771Z,4.20
2022-09-24T20:04:09.960Z,4.90
2022-09-24T20:06:39.204Z,4.40
2022-09-24T20:09:06.576Z,3.70
2022-09-24T20:11:33.792Z,4.85
2022-09-24T20:14:08.909Z,5.60
2022-09-24T20:16:36.404Z,4.88
2022-09-24T20:19:05.689Z,4.63
2022-09-24T20:24:11.247Z,3.92
2022-09-24T20:26:56.715Z,4.25
2022-09-24T20:29:24.195Z,3.88
2022-09-24T20:31:53.102Z,3.65
2022-09-24T20:34:25.123Z,3.40
2022-09-24T20:36:52.169Z,3.75
2022-09-24T20:39:21.362Z,4.13
2022-09-24T20:41:50.424Z,3.58
2022-09-24T20:44:17.542Z,4.10
2022-09-24T20:46:46.543Z,3.05
2022-09-24T20:49:22.642Z,3.72
2022-09-24T20:51:56.214Z,3.83
2022-09-24T20:54:28.114Z,3.60
2022-09-24T20:56:57.626Z,3.55
2022-09-24T20:59:27.136Z,3.60
2022-09-24T21:01:54.435Z,3.70
2022-09-24T21:04:22.399Z,3.85
2022-09-24T21:06:51.540Z,3.60
2022-09-24T21:09:18.427Z,3.83
2022-09-24T21:11:45.183Z,4.18
2022-09-24T21:14:14.781Z,3.55
2022-09-24T21:16:44.297Z,3.05
2022-09-24T21:19:12.487Z,3.78
2022-09-24T21:21:39.256Z,3.13
2022-09-24T21:24:08.458Z,3.25
2022-09-24T21:26:37.331Z,3.38
2022-09-24T21:29:14.215Z,3.70
2022-09-24T21:31:42.122Z,3.97
2022-09-24T21:34:10.309Z,4.03
2022-09-24T21:36:44.610Z,4.88
2022-09-24T21:39:27.217Z,3.97
2022-09-24T21:42:02.393Z,4.10
2022-09-24T21:44:34.138Z,4.07
2022-09-24T21:47:04.010Z,5.28
2022-09-24T21:49:33.647Z,3.67
2022-09-24T21:52:05.385Z,3.70
2022-09-24T21:54:39.694Z,3.47
2022-09-24T21:57:06.760Z,3.97
2022-09-24T21:59:55.251Z,3.95
2022-09-24T22:02:22.271Z,3.75
2022-09-24T22:04:49.309Z,4.05
2022-09-24T22:07:21.565Z,4.40
2022-09-24T22:09:48.315Z,4.10
2022-09-24T22:12:15.030Z,4.60
2022-09-24T22:14:45.038Z,4.00
2022-09-24T22:17:13.422Z,3.80
2022-09-24T22:19:42.896Z,3.78
2022-09-24T22:22:14.648Z,4.20
2022-09-24T22:24:43.691Z,4.28
2022-09-24T22:27:14.220Z,3.95
2022-09-24T22:29:43.572Z,4.70
2022-09-24T22:32:12.795Z,4.30
2022-09-24T22:34:57.936Z,4.40
2022-09-24T22:37:27.277Z,4.28
2022-09-24T22:42:20.583Z,3.70
2022-09-24T22:44:47.261Z,4.00
2022-09-24T22:47:21.506Z,3.60
2022-09-24T22:49:48.179Z,3.72
2022-09-24T22:52:17.361Z,4.25
2022-09-24T22:54:46.383Z,4.13
2022-09-24T22:57:13.049Z,4.32
2022-09-24T22:59:42.094Z,4.70
2022-09-24T23:02:13.302Z,5.78
2022-09-24T23:04:40.499Z,4.82
2022-09-24T23:07:07.255Z,4.68
2022-09-24T23:09:36.285Z,4.30
2022-09-24T23:12:05.113Z,5.43
2022-09-24T23:14:35.165Z,4.45
2022-09-24T23:17:04.631Z,4.55
2022-09-24T23:19:52.036Z,4.88
2022-09-24T23:22:22.542Z,4.63
2022-09-24T23:24:56.478Z,4.25
2022-09-24T23:27:25.696Z,4.25
2022-09-24T23:29:59.781Z,4.70
2022-09-24T23:32:26.449Z,5.03
2022-09-24T23:34:56.402Z,6.85
2022-09-24T23:37:23.093Z,6.07
2022-09-24T23:39:49.808Z,6.15
2022-09-24T23:42:16.518Z,6.50
2022-09-24T23:44:45.564Z,5.95
2022-09-24T23:47:17.250Z,5.97
2022-09-24T23:52:13.135Z,5.90
2022-09-24T23:54:42.340Z,6.88
2022-09-24T23:59:38.575Z,6.78
